Longmont, CO (80501)

8:42 AM MDT on August 25, 2019 (GMT -0600)
Historic East Side | | Change Station
Active Advisory: Fire Weather Warning

Elev 5000 ft 40.17 °N, 105.10 °W | Updated 14 minutes ago

Clear
Clear
63.5 °F
Feels Like 63.5 °F
N
0.7
Wind Variable Wind from NNE
Gusts 2.5 mph

Today
High -- | Low -- °F
--% Chance of Precip.
Yesterday
High -- | Low -- °F
Precip. -- in
Pressure 30.00 in
Visibility 7.0 miles
Clouds Clear
Dew Point 53 °F
Humidity 73%
Rainfall 0.00 in
Snow Depth Not available.
6:21 AM 7:43 PM
Waning Crescent, 30% visible
METAR KLMO 251435Z AUTO 00000KT 7SM CLR 26/08 A3000 RMK AO2 T02580076
Pressure 30.00 in
Visibility 7.0 miles
Clouds Clear
Dew Point 53 °F
Humidity 73%
Rainfall 0.00 in
Snow Depth Not available.
6:21 AM 7:43 PM
Waning Crescent, 30% visible
METAR KLMO 251435Z AUTO 00000KT 7SM CLR 26/08 A3000 RMK AO2 T02580076

Get Your Daily Forecast Email!

Thanks for signing up!

Be on the lookout for a verification email in your inbox.

You'll start receiving severe weather alerts in your inbox..

×

10-Day Weather Forecast

Almanac

Astronomy

Aug. 25, 2019 Rise Set
Actual Time
Civil Twilight
Nautical Twilight
Astronomical Twilight
Moon
Length of Visible Light
Length of Day
Tomorrow will be .
, % of the Moon is Illuminated

Today's Extremes

State Highs State Lows

Community

WunderPhotos

Category 6

Welcome to Category 6. This is the collective home for Weather Underground's featured writeups by Dr. Jeff Masters (right), Bob Henson (left), Chris Burt, and other regular contributors.

Nearby

Air Quality

  Air Quality AQ Index Pollutant
Not available.

Snow Depth

Station Depth Elevation

Earthquake Activity

City Distance Mag. Time & Date
Minimum magnitude displayed is 2.5.

Coastal Water Temperatures

Place Temperature

Stations

Nearby Weather Stations

Station Location Temp. Windchill Dew Point Humidity Wind Precip. Elev Updated Type
                   

Watches & Warnings

Fire Weather Warning
Issued: 2:25 AM MDT Aug. 25, 2019 – National Weather Service

... Red flag warning remains in effect from 11 am this morning to
8 PM MDT this evening for wind and low relative humidity for
North Park, Middle Park, South Park, the Front Range foothills
and the Cheyenne Ridge...

* affected area... fire weather zones 211... 213... 214... 215...
238 and 242.

* Winds... west 15 to 25 mph with gusts up to 40 mph.

* Timing... late Sunday morning through early Sunday evening.

* Relative humidity... as low as 14 percent.

* Impacts... fires will start easily and spread rapidly.

Precautionary/preparedness actions...

A red flag warning means that critical fire weather conditions
are either occurring now... .or will shortly. A combination of
strong winds... low relative humidity... and warm temperatures can
contribute to extreme fire behavior.



Gimmestad